sensor_id;sensor_type;location;lat;lon;timestamp;P1;durP1;ratioP1;P2;durP2;ratioP2
57057;SDS011;74999;52.848;6.748;2024-03-22T00:01:42;34.05;;;28.48;;
57057;SDS011;74999;52.848;6.748;2024-03-22T00:04:09;33.55;;;27.20;;
57057;SDS011;74999;52.848;6.748;2024-03-22T00:06:34;34.00;;;27.17;;
57057;SDS011;74999;52.848;6.748;2024-03-22T00:09:00;38.50;;;31.90;;
57057;SDS011;74999;52.848;6.748;2024-03-22T00:11:26;35.55;;;28.65;;
57057;SDS011;74999;52.848;6.748;2024-03-22T00:13:51;36.47;;;27.73;;
57057;SDS011;74999;52.848;6.748;2024-03-22T00:16:17;37.03;;;31.08;;
57057;SDS011;74999;52.848;6.748;2024-03-22T00:18:42;38.58;;;32.13;;
57057;SDS011;74999;52.848;6.748;2024-03-22T00:21:08;38.75;;;31.15;;
57057;SDS011;74999;52.848;6.748;2024-03-22T00:23:33;38.25;;;29.80;;
57057;SDS011;74999;52.848;6.748;2024-03-22T00:25:59;35.92;;;31.25;;
57057;SDS011;74999;52.848;6.748;2024-03-22T00:28:25;36.35;;;29.65;;
57057;SDS011;74999;52.848;6.748;2024-03-22T00:30:50;38.58;;;29.90;;
57057;SDS011;74999;52.848;6.748;2024-03-22T00:33:16;38.88;;;31.08;;
57057;SDS011;74999;52.848;6.748;2024-03-22T00:35:42;39.35;;;31.23;;
57057;SDS011;74999;52.848;6.748;2024-03-22T00:38:08;40.97;;;31.25;;
57057;SDS011;74999;52.848;6.748;2024-03-22T00:40:33;39.38;;;29.00;;
57057;SDS011;74999;52.848;6.748;2024-03-22T00:42:59;39.90;;;30.83;;
57057;SDS011;74999;52.848;6.748;2024-03-22T00:45:24;39.13;;;31.40;;
57057;SDS011;74999;52.848;6.748;2024-03-22T00:47:50;42.35;;;31.10;;
57057;SDS011;74999;52.848;6.748;2024-03-22T00:50:16;40.30;;;31.27;;
57057;SDS011;74999;52.848;6.748;2024-03-22T00:52:41;40.33;;;32.85;;
57057;SDS011;74999;52.848;6.748;2024-03-22T00:55:07;42.58;;;32.15;;
57057;SDS011;74999;52.848;6.748;2024-03-22T00:57:33;43.30;;;31.27;;
57057;SDS011;74999;52.848;6.748;2024-03-22T00:59:58;39.25;;;29.73;;
57057;SDS011;74999;52.848;6.748;2024-03-22T01:02:24;46.17;;;30.50;;
57057;SDS011;74999;52.848;6.748;2024-03-22T01:04:50;43.40;;;32.55;;
57057;SDS011;74999;52.848;6.748;2024-03-22T01:07:15;53.57;;;44.17;;
57057;SDS011;74999;52.848;6.748;2024-03-22T01:09:41;43.78;;;33.63;;
57057;SDS011;74999;52.848;6.748;2024-03-22T01:12:09;45.75;;;34.78;;
57057;SDS011;74999;52.848;6.748;2024-03-22T01:14:35;45.47;;;34.92;;
57057;SDS011;74999;52.848;6.748;2024-03-22T01:17:00;46.88;;;31.83;;
57057;SDS011;74999;52.848;6.748;2024-03-22T01:19:26;44.80;;;33.33;;
57057;SDS011;74999;52.848;6.748;2024-03-22T01:21:52;44.05;;;32.28;;
57057;SDS011;74999;52.848;6.748;2024-03-22T01:24:17;41.42;;;31.67;;
57057;SDS011;74999;52.848;6.748;2024-03-22T01:26:43;43.60;;;32.70;;
57057;SDS011;74999;52.848;6.748;2024-03-22T01:29:09;43.65;;;31.83;;
57057;SDS011;74999;52.848;6.748;2024-03-22T01:31:34;55.23;;;45.53;;
57057;SDS011;74999;52.848;6.748;2024-03-22T01:34:00;47.67;;;37.03;;
57057;SDS011;74999;52.848;6.748;2024-03-22T01:36:25;46.65;;;33.10;;
57057;SDS011;74999;52.848;6.748;2024-03-22T01:38:51;49.05;;;34.70;;
57057;SDS011;74999;52.848;6.748;2024-03-22T01:41:17;45.72;;;35.20;;
57057;SDS011;74999;52.848;6.748;2024-03-22T01:43:43;50.67;;;34.90;;
57057;SDS011;74999;52.848;6.748;2024-03-22T01:46:08;44.53;;;32.50;;
57057;SDS011;74999;52.848;6.748;2024-03-22T01:48:34;45.97;;;33.55;;
57057;SDS011;74999;52.848;6.748;2024-03-22T01:51:00;46.72;;;33.38;;
57057;SDS011;74999;52.848;6.748;2024-03-22T01:53:27;48.63;;;34.05;;
57057;SDS011;74999;52.848;6.748;2024-03-22T01:55:53;58.33;;;46.58;;
57057;SDS011;74999;52.848;6.748;2024-03-22T01:58:19;50.63;;;37.15;;
57057;SDS011;74999;52.848;6.748;2024-03-22T02:00:46;46.35;;;34.25;;
57057;SDS011;74999;52.848;6.748;2024-03-22T02:03:12;46.38;;;33.97;;
57057;SDS011;74999;52.848;6.748;2024-03-22T02:05:38;44.35;;;33.35;;
57057;SDS011;74999;52.848;6.748;2024-03-22T02:08:04;50.53;;;35.55;;
57057;SDS011;74999;52.848;6.748;2024-03-22T02:10:30;44.80;;;34.13;;
57057;SDS011;74999;52.848;6.748;2024-03-22T02:12:56;49.47;;;34.17;;
57057;SDS011;74999;52.848;6.748;2024-03-22T02:15:22;49.95;;;34.45;;
57057;SDS011;74999;52.848;6.748;2024-03-22T02:17:49;46.92;;;33.88;;
57057;SDS011;74999;52.848;6.748;2024-03-22T02:20:15;47.80;;;33.53;;
57057;SDS011;74999;52.848;6.748;2024-03-22T02:22:40;50.33;;;34.72;;
57057;SDS011;74999;52.848;6.748;2024-03-22T02:25:06;50.28;;;35.60;;
57057;SDS011;74999;52.848;6.748;2024-03-22T02:27:33;48.58;;;33.72;;
57057;SDS011;74999;52.848;6.748;2024-03-22T02:29:59;47.88;;;34.33;;
57057;SDS011;74999;52.848;6.748;2024-03-22T02:32:25;47.05;;;33.05;;
57057;SDS011;74999;52.848;6.748;2024-03-22T02:34:50;61.30;;;47.67;;
57057;SDS011;74999;52.848;6.748;2024-03-22T02:37:16;52.95;;;35.47;;
57057;SDS011;74999;52.848;6.748;2024-03-22T02:39:41;50.83;;;35.92;;
57057;SDS011;74999;52.848;6.748;2024-03-22T02:42:08;53.20;;;36.65;;
57057;SDS011;74999;52.848;6.748;2024-03-22T02:44:33;53.05;;;34.05;;
57057;SDS011;74999;52.848;6.748;2024-03-22T02:46:59;48.72;;;33.15;;
57057;SDS011;74999;52.848;6.748;2024-03-22T02:49:25;49.95;;;34.90;;
57057;SDS011;74999;52.848;6.748;2024-03-22T02:51:51;49.63;;;34.17;;
57057;SDS011;74999;52.848;6.748;2024-03-22T02:54:16;49.08;;;34.83;;
57057;SDS011;74999;52.848;6.748;2024-03-22T02:56:42;47.58;;;31.77;;
57057;SDS011;74999;52.848;6.748;2024-03-22T02:59:07;51.47;;;35.45;;
57057;SDS011;74999;52.848;6.748;2024-03-22T03:01:33;49.13;;;33.70;;
57057;SDS011;74999;52.848;6.748;2024-03-22T03:03:59;48.95;;;34.50;;
57057;SDS011;74999;52.848;6.748;2024-03-22T03:06:24;50.50;;;35.60;;
57057;SDS011;74999;52.848;6.748;2024-03-22T03:08:50;50.67;;;33.28;;
57057;SDS011;74999;52.848;6.748;2024-03-22T03:11:15;50.13;;;35.20;;
57057;SDS011;74999;52.848;6.748;2024-03-22T03:13:41;49.30;;;35.67;;
57057;SDS011;74999;52.848;6.748;2024-03-22T03:16:07;50.38;;;35.22;;
57057;SDS011;74999;52.848;6.748;2024-03-22T03:18:32;54.67;;;34.90;;
57057;SDS011;74999;52.848;6.748;2024-03-22T03:20:58;50.70;;;34.58;;
57057;SDS011;74999;52.848;6.748;2024-03-22T03:23:23;49.95;;;35.03;;
57057;SDS011;74999;52.848;6.748;2024-03-22T03:25:49;64.07;;;49.50;;
57057;SDS011;74999;52.848;6.748;2024-03-22T03:28:15;54.10;;;38.25;;
57057;SDS011;74999;52.848;6.748;2024-03-22T03:30:41;53.30;;;36.92;;
57057;SDS011;74999;52.848;6.748;2024-03-22T03:33:07;48.88;;;33.92;;
57057;SDS011;74999;52.848;6.748;2024-03-22T03:35:32;50.20;;;34.95;;
57057;SDS011;74999;52.848;6.748;2024-03-22T03:37:58;48.88;;;33.33;;
57057;SDS011;74999;52.848;6.748;2024-03-22T03:40:24;50.67;;;34.30;;
57057;SDS011;74999;52.848;6.748;2024-03-22T03:42:50;52.65;;;35.28;;
57057;SDS011;74999;52.848;6.748;2024-03-22T03:45:16;53.83;;;36.20;;
57057;SDS011;74999;52.848;6.748;2024-03-22T03:47:42;54.35;;;34.47;;
57057;SDS011;74999;52.848;6.748;2024-03-22T03:50:07;50.22;;;34.45;;
57057;SDS011;74999;52.848;6.748;2024-03-22T03:52:33;45.85;;;33.38;;
57057;SDS011;74999;52.848;6.748;2024-03-22T03:54:59;52.17;;;33.85;;
57057;SDS011;74999;52.848;6.748;2024-03-22T03:57:24;53.90;;;36.97;;
57057;SDS011;74999;52.848;6.748;2024-03-22T03:59:51;48.63;;;32.55;;
57057;SDS011;74999;52.848;6.748;2024-03-22T04:02:16;50.13;;;34.50;;
57057;SDS011;74999;52.848;6.748;2024-03-22T04:04:42;53.83;;;37.38;;
57057;SDS011;74999;52.848;6.748;2024-03-22T04:07:08;65.10;;;49.23;;
57057;SDS011;74999;52.848;6.748;2024-03-22T04:09:34;51.70;;;39.75;;
57057;SDS011;74999;52.848;6.748;2024-03-22T04:11:59;47.58;;;34.90;;
57057;SDS011;74999;52.848;6.748;2024-03-22T04:14:25;48.63;;;33.85;;
57057;SDS011;74999;52.848;6.748;2024-03-22T04:16:51;50.22;;;35.55;;
57057;SDS011;74999;52.848;6.748;2024-03-22T04:19:16;50.85;;;35.78;;
57057;SDS011;74999;52.848;6.748;2024-03-22T04:21:42;47.00;;;34.38;;
57057;SDS011;74999;52.848;6.748;2024-03-22T04:24:08;45.53;;;34.63;;
57057;SDS011;74999;52.848;6.748;2024-03-22T04:26:33;50.22;;;34.20;;
57057;SDS011;74999;52.848;6.748;2024-03-22T04:28:59;47.75;;;33.85;;
57057;SDS011;74999;52.848;6.748;2024-03-22T04:31:24;48.60;;;36.03;;
57057;SDS011;74999;52.848;6.748;2024-03-22T04:33:50;53.78;;;34.47;;
57057;SDS011;74999;52.848;6.748;2024-03-22T04:36:16;51.80;;;34.45;;
57057;SDS011;74999;52.848;6.748;2024-03-22T04:38:41;48.33;;;35.08;;
57057;SDS011;74999;52.848;6.748;2024-03-22T04:41:07;47.33;;;33.55;;
57057;SDS011;74999;52.848;6.748;2024-03-22T04:43:33;50.70;;;35.10;;
57057;SDS011;74999;52.848;6.748;2024-03-22T04:45:59;51.67;;;34.22;;
57057;SDS011;74999;52.848;6.748;2024-03-22T04:48:24;48.00;;;31.60;;
57057;SDS011;74999;52.848;6.748;2024-03-22T04:50:51;48.03;;;32.85;;
57057;SDS011;74999;52.848;6.748;2024-03-22T04:53:17;50.80;;;32.67;;
57057;SDS011;74999;52.848;6.748;2024-03-22T04:55:43;65.73;;;49.17;;
57057;SDS011;74999;52.848;6.748;2024-03-22T04:58:19;52.33;;;36.55;;
57057;SDS011;74999;52.848;6.748;2024-03-22T05:00:46;53.63;;;35.92;;
57057;SDS011;74999;52.848;6.748;2024-03-22T05:03:13;50.15;;;34.40;;
57057;SDS011;74999;52.848;6.748;2024-03-22T05:05:39;51.40;;;33.92;;
57057;SDS011;74999;52.848;6.748;2024-03-22T05:08:06;57.88;;;36.80;;
57057;SDS011;74999;52.848;6.748;2024-03-22T05:10:32;50.17;;;35.67;;
57057;SDS011;74999;52.848;6.748;2024-03-22T05:12:58;49.65;;;35.08;;
57057;SDS011;74999;52.848;6.748;2024-03-22T05:15:24;53.30;;;36.35;;
57057;SDS011;74999;52.848;6.748;2024-03-22T05:17:50;49.10;;;34.70;;
57057;SDS011;74999;52.848;6.748;2024-03-22T05:20:17;54.75;;;35.38;;
57057;SDS011;74999;52.848;6.748;2024-03-22T05:22:42;54.85;;;34.58;;
57057;SDS011;74999;52.848;6.748;2024-03-22T05:25:08;51.08;;;36.17;;
57057;SDS011;74999;52.848;6.748;2024-03-22T05:27:35;52.90;;;34.47;;
57057;SDS011;74999;52.848;6.748;2024-03-22T05:30:01;54.40;;;36.40;;
57057;SDS011;74999;52.848;6.748;2024-03-22T05:32:27;51.10;;;36.22;;
57057;SDS011;74999;52.848;6.748;2024-03-22T05:34:52;51.20;;;33.22;;
57057;SDS011;74999;52.848;6.748;2024-03-22T05:37:18;65.22;;;47.40;;
57057;SDS011;74999;52.848;6.748;2024-03-22T05:39:45;50.53;;;35.75;;
57057;SDS011;74999;52.848;6.748;2024-03-22T05:42:10;48.75;;;36.10;;
57057;SDS011;74999;52.848;6.748;2024-03-22T05:44:36;49.65;;;35.28;;
57057;SDS011;74999;52.848;6.748;2024-03-22T05:47:01;52.80;;;34.60;;
57057;SDS011;74999;52.848;6.748;2024-03-22T05:49:27;51.53;;;36.90;;
57057;SDS011;74999;52.848;6.748;2024-03-22T05:51:53;47.88;;;33.40;;
57057;SDS011;74999;52.848;6.748;2024-03-22T05:54:18;48.22;;;33.92;;
57057;SDS011;74999;52.848;6.748;2024-03-22T05:56:45;50.35;;;34.58;;
57057;SDS011;74999;52.848;6.748;2024-03-22T05:59:11;52.38;;;35.10;;
57057;SDS011;74999;52.848;6.748;2024-03-22T06:01:36;53.92;;;35.30;;
57057;SDS011;74999;52.848;6.748;2024-03-22T06:04:03;54.00;;;34.67;;
57057;SDS011;74999;52.848;6.748;2024-03-22T06:06:29;51.60;;;36.13;;
57057;SDS011;74999;52.848;6.748;2024-03-22T06:08:55;56.05;;;34.58;;
57057;SDS011;74999;52.848;6.748;2024-03-22T06:11:22;51.17;;;33.10;;
57057;SDS011;74999;52.848;6.748;2024-03-22T06:13:47;50.63;;;33.75;;
57057;SDS011;74999;52.848;6.748;2024-03-22T06:16:13;51.13;;;35.33;;
57057;SDS011;74999;52.848;6.748;2024-03-22T06:18:39;49.65;;;33.85;;
57057;SDS011;74999;52.848;6.748;2024-03-22T06:21:05;50.90;;;33.80;;
57057;SDS011;74999;52.848;6.748;2024-03-22T06:23:31;53.90;;;34.47;;
57057;SDS011;74999;52.848;6.748;2024-03-22T06:25:57;49.55;;;33.25;;
57057;SDS011;74999;52.848;6.748;2024-03-22T06:28:24;50.33;;;35.38;;
57057;SDS011;74999;52.848;6.748;2024-03-22T06:30:50;50.42;;;35.35;;
57057;SDS011;74999;52.848;6.748;2024-03-22T06:33:16;45.60;;;32.42;;
57057;SDS011;74999;52.848;6.748;2024-03-22T06:35:41;50.42;;;32.20;;
57057;SDS011;74999;52.848;6.748;2024-03-22T06:38:07;45.78;;;32.95;;
57057;SDS011;74999;52.848;6.748;2024-03-22T06:40:34;44.63;;;30.67;;
57057;SDS011;74999;52.848;6.748;2024-03-22T06:43:00;64.28;;;43.72;;
57057;SDS011;74999;52.848;6.748;2024-03-22T06:45:25;51.45;;;34.97;;
57057;SDS011;74999;52.848;6.748;2024-03-22T06:47:51;47.95;;;33.15;;
57057;SDS011;74999;52.848;6.748;2024-03-22T06:50:17;45.92;;;30.75;;
57057;SDS011;74999;52.848;6.748;2024-03-22T06:52:43;41.10;;;31.50;;
57057;SDS011;74999;52.848;6.748;2024-03-22T06:55:09;46.55;;;32.25;;
57057;SDS011;74999;52.848;6.748;2024-03-22T06:57:34;42.97;;;29.58;;
57057;SDS011;74999;52.848;6.748;2024-03-22T07:00:00;38.33;;;28.58;;
57057;SDS011;74999;52.848;6.748;2024-03-22T07:02:26;48.85;;;31.33;;
57057;SDS011;74999;52.848;6.748;2024-03-22T07:04:51;47.25;;;30.13;;
57057;SDS011;74999;52.848;6.748;2024-03-22T07:07:17;45.70;;;32.55;;
57057;SDS011;74999;52.848;6.748;2024-03-22T07:09:43;44.65;;;30.50;;
57057;SDS011;74999;52.848;6.748;2024-03-22T07:12:09;41.35;;;32.00;;
57057;SDS011;74999;52.848;6.748;2024-03-22T07:14:34;47.67;;;31.85;;
57057;SDS011;74999;52.848;6.748;2024-03-22T07:17:00;40.25;;;28.15;;
57057;SDS011;74999;52.848;6.748;2024-03-22T07:19:26;44.28;;;29.83;;
57057;SDS011;74999;52.848;6.748;2024-03-22T07:21:53;43.75;;;28.67;;
57057;SDS011;74999;52.848;6.748;2024-03-22T07:24:19;44.35;;;30.88;;
57057;SDS011;74999;52.848;6.748;2024-03-22T07:26:44;43.75;;;28.02;;
57057;SDS011;74999;52.848;6.748;2024-03-22T07:29:11;40.90;;;28.55;;
57057;SDS011;74999;52.848;6.748;2024-03-22T07:31:37;45.47;;;30.35;;
57057;SDS011;74999;52.848;6.748;2024-03-22T07:34:02;38.70;;;26.77;;
57057;SDS011;74999;52.848;6.748;2024-03-22T07:36:30;38.65;;;28.25;;
57057;SDS011;74999;52.848;6.748;2024-03-22T07:38:55;38.80;;;27.85;;
57057;SDS011;74999;52.848;6.748;2024-03-22T07:41:23;37.63;;;28.15;;
57057;SDS011;74999;52.848;6.748;2024-03-22T07:43:49;39.17;;;26.58;;
57057;SDS011;74999;52.848;6.748;2024-03-22T07:46:14;40.60;;;27.05;;
57057;SDS011;74999;52.848;6.748;2024-03-22T07:48:40;39.08;;;27.08;;
57057;SDS011;74999;52.848;6.748;2024-03-22T07:51:05;34.92;;;26.20;;
57057;SDS011;74999;52.848;6.748;2024-03-22T07:53:31;37.15;;;25.77;;
57057;SDS011;74999;52.848;6.748;2024-03-22T07:55:57;32.28;;;27.42;;
57057;SDS011;74999;52.848;6.748;2024-03-22T07:58:22;34.72;;;26.13;;
57057;SDS011;74999;52.848;6.748;2024-03-22T08:00:48;35.13;;;25.40;;
57057;SDS011;74999;52.848;6.748;2024-03-22T08:03:14;38.47;;;27.20;;
57057;SDS011;74999;52.848;6.748;2024-03-22T08:05:40;37.22;;;26.52;;
57057;SDS011;74999;52.848;6.748;2024-03-22T08:08:06;36.15;;;26.55;;
57057;SDS011;74999;52.848;6.748;2024-03-22T08:10:32;36.17;;;26.77;;
57057;SDS011;74999;52.848;6.748;2024-03-22T08:12:58;35.03;;;26.67;;
57057;SDS011;74999;52.848;6.748;2024-03-22T08:15:23;30.48;;;24.60;;
57057;SDS011;74999;52.848;6.748;2024-03-22T08:17:49;35.83;;;23.60;;
57057;SDS011;74999;52.848;6.748;2024-03-22T08:20:14;34.97;;;24.58;;
57057;SDS011;74999;52.848;6.748;2024-03-22T08:22:40;32.85;;;24.00;;
57057;SDS011;74999;52.848;6.748;2024-03-22T08:25:06;28.50;;;24.92;;
57057;SDS011;74999;52.848;6.748;2024-03-22T08:27:33;29.95;;;22.90;;
57057;SDS011;74999;52.848;6.748;2024-03-22T08:29:59;26.85;;;23.85;;
57057;SDS011;74999;52.848;6.748;2024-03-22T08:32:25;31.23;;;22.13;;
57057;SDS011;74999;52.848;6.748;2024-03-22T08:34:51;38.00;;;24.67;;
57057;SDS011;74999;52.848;6.748;2024-03-22T08:37:16;32.53;;;25.20;;
57057;SDS011;74999;52.848;6.748;2024-03-22T08:39:43;32.47;;;23.83;;
57057;SDS011;74999;52.848;6.748;2024-03-22T08:42:08;31.30;;;24.52;;
57057;SDS011;74999;52.848;6.748;2024-03-22T08:44:34;29.73;;;25.33;;
57057;SDS011;74999;52.848;6.748;2024-03-22T08:47:00;33.22;;;22.90;;
57057;SDS011;74999;52.848;6.748;2024-03-22T08:49:26;28.65;;;24.23;;
57057;SDS011;74999;52.848;6.748;2024-03-22T08:51:51;30.35;;;24.20;;
57057;SDS011;74999;52.848;6.748;2024-03-22T08:54:17;30.70;;;24.55;;
57057;SDS011;74999;52.848;6.748;2024-03-22T08:56:43;31.15;;;24.67;;
57057;SDS011;74999;52.848;6.748;2024-03-22T08:59:08;30.35;;;21.90;;
57057;SDS011;74999;52.848;6.748;2024-03-22T09:01:35;30.63;;;23.17;;
57057;SDS011;74999;52.848;6.748;2024-03-22T09:04:01;26.83;;;21.45;;
57057;SDS011;74999;52.848;6.748;2024-03-22T09:06:27;30.60;;;23.33;;
57057;SDS011;74999;52.848;6.748;2024-03-22T09:08:53;30.75;;;23.65;;
57057;SDS011;74999;52.848;6.748;2024-03-22T09:11:22;27.40;;;21.48;;
57057;SDS011;74999;52.848;6.748;2024-03-22T09:13:52;27.20;;;23.83;;
57057;SDS011;74999;52.848;6.748;2024-03-22T09:16:23;24.73;;;20.33;;
57057;SDS011;74999;52.848;6.748;2024-03-22T09:18:48;24.90;;;20.98;;
57057;SDS011;74999;52.848;6.748;2024-03-22T09:21:14;25.25;;;22.55;;
57057;SDS011;74999;52.848;6.748;2024-03-22T09:23:40;28.15;;;21.55;;
57057;SDS011;74999;52.848;6.748;2024-03-22T09:26:05;25.23;;;19.63;;
57057;SDS011;74999;52.848;6.748;2024-03-22T09:28:31;23.00;;;20.17;;
57057;SDS011;74999;52.848;6.748;2024-03-22T09:30:57;22.92;;;19.00;;
57057;SDS011;74999;52.848;6.748;2024-03-22T09:33:22;29.27;;;19.38;;
57057;SDS011;74999;52.848;6.748;2024-03-22T09:35:48;24.33;;;21.60;;
57057;SDS011;74999;52.848;6.748;2024-03-22T09:38:13;23.77;;;19.33;;
57057;SDS011;74999;52.848;6.748;2024-03-22T09:40:40;24.95;;;22.25;;
57057;SDS011;74999;52.848;6.748;2024-03-22T09:43:07;26.08;;;21.42;;
57057;SDS011;74999;52.848;6.748;2024-03-22T09:45:33;21.50;;;19.08;;
57057;SDS011;74999;52.848;6.748;2024-03-22T09:47:59;21.10;;;18.83;;
57057;SDS011;74999;52.848;6.748;2024-03-22T09:50:25;24.35;;;21.75;;
57057;SDS011;74999;52.848;6.748;2024-03-22T09:52:54;21.15;;;19.15;;
57057;SDS011;74999;52.848;6.748;2024-03-22T09:55:22;21.67;;;19.38;;
57057;SDS011;74999;52.848;6.748;2024-03-22T09:57:49;23.30;;;20.13;;
57057;SDS011;74999;52.848;6.748;2024-03-22T10:00:21;21.70;;;19.52;;
57057;SDS011;74999;52.848;6.748;2024-03-22T10:02:51;20.80;;;18.67;;
57057;SDS011;74999;52.848;6.748;2024-03-22T10:05:18;18.85;;;16.98;;
57057;SDS011;74999;52.848;6.748;2024-03-22T10:07:44;19.60;;;17.25;;
57057;SDS011;74999;52.848;6.748;2024-03-22T10:10:10;20.65;;;18.58;;
57057;SDS011;74999;52.848;6.748;2024-03-22T10:12:35;18.98;;;16.80;;
57057;SDS011;74999;52.848;6.748;2024-03-22T10:15:02;19.70;;;18.05;;
57057;SDS011;74999;52.848;6.748;2024-03-22T10:17:28;22.17;;;20.23;;
57057;SDS011;74999;52.848;6.748;2024-03-22T10:19:54;20.35;;;18.30;;
57057;SDS011;74999;52.848;6.748;2024-03-22T10:22:20;18.45;;;16.67;;
57057;SDS011;74999;52.848;6.748;2024-03-22T10:24:46;21.67;;;19.67;;
57057;SDS011;74999;52.848;6.748;2024-03-22T10:27:11;19.27;;;17.17;;
57057;SDS011;74999;52.848;6.748;2024-03-22T10:29:37;19.98;;;18.05;;
57057;SDS011;74999;52.848;6.748;2024-03-22T10:32:03;18.90;;;17.08;;
57057;SDS011;74999;52.848;6.748;2024-03-22T10:34:28;18.42;;;16.70;;
57057;SDS011;74999;52.848;6.748;2024-03-22T10:36:57;21.25;;;19.42;;
57057;SDS011;74999;52.848;6.748;2024-03-22T10:39:26;19.23;;;17.50;;
57057;SDS011;74999;52.848;6.748;2024-03-22T10:41:52;17.70;;;16.10;;
57057;SDS011;74999;52.848;6.748;2024-03-22T10:44:18;20.48;;;18.42;;
57057;SDS011;74999;52.848;6.748;2024-03-22T10:46:45;18.85;;;16.77;;
57057;SDS011;74999;52.848;6.748;2024-03-22T10:49:19;18.63;;;16.77;;
57057;SDS011;74999;52.848;6.748;2024-03-22T10:51:46;19.85;;;18.00;;
57057;SDS011;74999;52.848;6.748;2024-03-22T10:54:24;19.15;;;17.45;;
57057;SDS011;74999;52.848;6.748;2024-03-22T10:56:52;18.83;;;17.42;;
57057;SDS011;74999;52.848;6.748;2024-03-22T10:59:19;19.70;;;17.90;;
57057;SDS011;74999;52.848;6.748;2024-03-22T11:01:46;17.55;;;15.95;;
57057;SDS011;74999;52.848;6.748;2024-03-22T11:04:11;22.13;;;20.23;;
57057;SDS011;74999;52.848;6.748;2024-03-22T11:06:39;17.83;;;16.25;;
57057;SDS011;74999;52.848;6.748;2024-03-22T11:09:05;17.05;;;15.45;;
57057;SDS011;74999;52.848;6.748;2024-03-22T11:11:31;19.52;;;17.85;;
57057;SDS011;74999;52.848;6.748;2024-03-22T11:14:02;14.63;;;13.32;;
57057;SDS011;74999;52.848;6.748;2024-03-22T11:16:30;15.25;;;14.18;;
57057;SDS011;74999;52.848;6.748;2024-03-22T11:18:56;15.75;;;14.65;;
57057;SDS011;74999;52.848;6.748;2024-03-22T11:21:22;16.35;;;15.25;;
57057;SDS011;74999;52.848;6.748;2024-03-22T11:23:48;15.02;;;13.82;;
57057;SDS011;74999;52.848;6.748;2024-03-22T11:26:14;13.73;;;12.80;;
57057;SDS011;74999;52.848;6.748;2024-03-22T11:28:39;13.90;;;12.85;;
57057;SDS011;74999;52.848;6.748;2024-03-22T11:31:05;13.82;;;12.82;;
57057;SDS011;74999;52.848;6.748;2024-03-22T11:33:31;12.88;;;11.77;;
57057;SDS011;74999;52.848;6.748;2024-03-22T11:36:03;12.93;;;11.82;;
57057;SDS011;74999;52.848;6.748;2024-03-22T11:38:30;12.98;;;12.02;;
57057;SDS011;74999;52.848;6.748;2024-03-22T11:40:57;13.77;;;12.88;;
57057;SDS011;74999;52.848;6.748;2024-03-22T11:43:25;14.55;;;13.70;;
57057;SDS011;74999;52.848;6.748;2024-03-22T11:45:53;13.95;;;12.98;;
57057;SDS011;74999;52.848;6.748;2024-03-22T11:48:19;13.55;;;12.75;;
57057;SDS011;74999;52.848;6.748;2024-03-22T11:50:45;13.77;;;12.90;;
57057;SDS011;74999;52.848;6.748;2024-03-22T11:53:11;15.10;;;14.07;;
57057;SDS011;74999;52.848;6.748;2024-03-22T11:55:36;13.80;;;13.00;;
57057;SDS011;74999;52.848;6.748;2024-03-22T11:58:02;12.07;;;11.27;;
57057;SDS011;74999;52.848;6.748;2024-03-22T12:00:28;14.57;;;13.68;;
57057;SDS011;74999;52.848;6.748;2024-03-22T12:02:54;14.27;;;13.40;;
57057;SDS011;74999;52.848;6.748;2024-03-22T12:05:22;13.27;;;12.48;;
57057;SDS011;74999;52.848;6.748;2024-03-22T12:07:51;15.52;;;14.52;;
57057;SDS011;74999;52.848;6.748;2024-03-22T12:10:17;12.15;;;11.45;;
57057;SDS011;74999;52.848;6.748;2024-03-22T12:12:43;11.60;;;10.77;;
57057;SDS011;74999;52.848;6.748;2024-03-22T12:15:08;10.70;;;10.05;;
57057;SDS011;74999;52.848;6.748;2024-03-22T12:17:34;12.70;;;11.90;;
57057;SDS011;74999;52.848;6.748;2024-03-22T12:20:02;12.45;;;11.55;;
57057;SDS011;74999;52.848;6.748;2024-03-22T12:22:29;11.80;;;11.07;;
57057;SDS011;74999;52.848;6.748;2024-03-22T12:24:55;13.98;;;13.27;;
57057;SDS011;74999;52.848;6.748;2024-03-22T12:27:20;11.57;;;10.88;;
57057;SDS011;74999;52.848;6.748;2024-03-22T12:29:46;12.48;;;11.75;;
57057;SDS011;74999;52.848;6.748;2024-03-22T12:32:12;11.38;;;10.68;;
57057;SDS011;74999;52.848;6.748;2024-03-22T12:34:38;11.80;;;11.10;;
57057;SDS011;74999;52.848;6.748;2024-03-22T12:37:03;11.80;;;11.15;;
57057;SDS011;74999;52.848;6.748;2024-03-22T12:39:29;12.30;;;11.40;;
57057;SDS011;74999;52.848;6.748;2024-03-22T12:41:57;11.77;;;10.88;;
57057;SDS011;74999;52.848;6.748;2024-03-22T12:44:22;12.02;;;11.30;;
57057;SDS011;74999;52.848;6.748;2024-03-22T12:46:48;12.65;;;11.90;;
57057;SDS011;74999;52.848;6.748;2024-03-22T12:49:16;12.85;;;12.10;;
57057;SDS011;74999;52.848;6.748;2024-03-22T12:51:42;11.30;;;10.70;;
57057;SDS011;74999;52.848;6.748;2024-03-22T12:54:07;12.15;;;11.45;;
57057;SDS011;74999;52.848;6.748;2024-03-22T12:56:34;12.48;;;11.68;;
57057;SDS011;74999;52.848;6.748;2024-03-22T12:59:00;11.75;;;11.02;;
57057;SDS011;74999;52.848;6.748;2024-03-22T13:01:25;12.38;;;11.55;;
57057;SDS011;74999;52.848;6.748;2024-03-22T13:03:51;13.50;;;12.73;;
57057;SDS011;74999;52.848;6.748;2024-03-22T13:06:17;11.57;;;10.60;;
57057;SDS011;74999;52.848;6.748;2024-03-22T13:08:42;11.52;;;10.57;;
57057;SDS011;74999;52.848;6.748;2024-03-22T13:11:08;13.25;;;12.45;;
57057;SDS011;74999;52.848;6.748;2024-03-22T13:13:34;11.50;;;10.65;;
57057;SDS011;74999;52.848;6.748;2024-03-22T13:16:03;12.38;;;11.50;;
57057;SDS011;74999;52.848;6.748;2024-03-22T13:18:29;12.05;;;11.25;;
57057;SDS011;74999;52.848;6.748;2024-03-22T13:20:55;13.93;;;12.93;;
57057;SDS011;74999;52.848;6.748;2024-03-22T13:23:21;10.77;;;10.18;;
57057;SDS011;74999;52.848;6.748;2024-03-22T13:25:46;11.70;;;10.90;;
57057;SDS011;74999;52.848;6.748;2024-03-22T13:28:12;11.70;;;10.90;;
57057;SDS011;74999;52.848;6.748;2024-03-22T13:30:38;11.02;;;10.13;;
57057;SDS011;74999;52.848;6.748;2024-03-22T13:33:04;14.00;;;13.00;;
57057;SDS011;74999;52.848;6.748;2024-03-22T13:35:29;14.27;;;12.98;;
57057;SDS011;74999;52.848;6.748;2024-03-22T13:37:55;12.52;;;11.48;;
57057;SDS011;74999;52.848;6.748;2024-03-22T13:40:21;11.75;;;10.90;;
57057;SDS011;74999;52.848;6.748;2024-03-22T13:42:47;11.77;;;10.60;;
57057;SDS011;74999;52.848;6.748;2024-03-22T13:45:12;13.90;;;12.80;;
57057;SDS011;74999;52.848;6.748;2024-03-22T13:47:38;13.20;;;12.23;;
57057;SDS011;74999;52.848;6.748;2024-03-22T13:50:05;12.98;;;11.93;;
57057;SDS011;74999;52.848;6.748;2024-03-22T13:52:33;11.30;;;10.35;;
57057;SDS011;74999;52.848;6.748;2024-03-22T13:55:00;14.63;;;13.65;;
57057;SDS011;74999;52.848;6.748;2024-03-22T13:57:26;13.07;;;12.13;;
57057;SDS011;74999;52.848;6.748;2024-03-22T13:59:52;14.18;;;12.80;;
57057;SDS011;74999;52.848;6.748;2024-03-22T14:02:18;14.10;;;13.07;;
57057;SDS011;74999;52.848;6.748;2024-03-22T14:04:44;13.45;;;12.48;;
57057;SDS011;74999;52.848;6.748;2024-03-22T14:07:10;13.50;;;12.48;;
57057;SDS011;74999;52.848;6.748;2024-03-22T14:09:36;12.75;;;11.50;;
57057;SDS011;74999;52.848;6.748;2024-03-22T14:12:01;13.88;;;12.82;;
57057;SDS011;74999;52.848;6.748;2024-03-22T14:14:27;14.98;;;13.55;;